createdAt,value
2022-09-23T00:01:03.854Z,101290.06
2022-09-23T00:02:07.027Z,101298.50
2022-09-23T00:03:09.802Z,101295.13
2022-09-23T00:04:11.602Z,101295.13
2022-09-23T00:05:13.351Z,101289.41
2022-09-23T00:06:18.909Z,101300.69
2022-09-23T00:07:21.642Z,101287.88
2022-09-23T00:09:25.064Z,101300.69
2022-09-23T00:10:29.167Z,101298.31
2022-09-23T00:11:31.161Z,101292.59
2022-09-23T00:12:34.050Z,101293.78
2022-09-23T00:13:37.376Z,101292.91
2022-09-23T00:14:39.574Z,101296.47
2022-09-23T00:15:41.344Z,101278.88
2022-09-23T00:16:43.281Z,101299.31
2022-09-23T00:17:45.618Z,101284.81
2022-09-23T00:18:49.461Z,101300.34
2022-09-23T00:19:51.130Z,101296.63
2022-09-23T00:20:53.015Z,101287.88
2022-09-23T00:21:56.783Z,101278.19
2022-09-23T00:22:58.536Z,101272.66
2022-09-23T00:24:00.500Z,101276.72
2022-09-23T00:25:07.254Z,101284.50
2022-09-23T00:26:11.349Z,101282.47
2022-09-23T00:27:13.387Z,101268.28
2022-09-23T00:28:15.060Z,101286.19
2022-09-23T00:29:16.847Z,101279.09
2022-09-23T00:30:18.884Z,101270.97
2022-09-23T00:31:23.833Z,101281.13
2022-09-23T00:32:26.035Z,101286.31
2022-09-23T00:33:27.735Z,101287.34
2022-09-23T00:34:29.911Z,101286.50
2022-09-23T00:35:31.587Z,101282.97
2022-09-23T00:36:33.471Z,101285.66
2022-09-23T00:37:35.535Z,101276.38
2022-09-23T00:38:38.160Z,101279.44
2022-09-23T00:39:39.991Z,101283.97
2022-09-23T00:40:46.155Z,101275.34
2022-09-23T00:41:48.032Z,101284.81
2022-09-23T00:42:52.203Z,101277.75
2022-09-23T00:43:55.401Z,101277.75
2022-09-23T00:44:59.643Z,101277.75
2022-09-23T00:46:01.348Z,101274.19
2022-09-23T00:47:03.495Z,101272.47
2022-09-23T00:48:06.223Z,101256.13
2022-09-23T00:49:15.455Z,101259.16
2022-09-23T00:50:39.663Z,101253.28
2022-09-23T00:51:46.839Z,101245.50
2022-09-23T00:52:50.738Z,101256.84
2022-09-23T00:53:53.032Z,101251.75
2022-09-23T00:54:58.924Z,101260.00
2022-09-23T00:56:04.559Z,101256.47
2022-09-23T00:57:07.085Z,101252.75
2022-09-23T00:58:12.587Z,101253.25
2022-09-23T00:59:14.367Z,101260.50
2022-09-23T01:00:16.243Z,101259.84
2022-09-23T01:01:19.819Z,101267.59
2022-09-23T01:02:21.969Z,101261.34
2022-09-23T01:03:23.691Z,101260.50
2022-09-23T01:04:27.594Z,101268.75
2022-09-23T01:05:29.406Z,101264.22
2022-09-23T01:06:31.169Z,101270.44
2022-09-23T01:07:33.171Z,101262.53
2022-09-23T01:08:34.995Z,101255.47
2022-09-23T01:09:37.275Z,101253.78
2022-09-23T01:10:48.771Z,101260.84
2022-09-23T01:12:33.980Z,101246.69
2022-09-23T01:14:01.254Z,101245.03
2022-09-23T01:15:09.124Z,101253.94
2022-09-23T01:16:28.930Z,101250.59
2022-09-23T01:17:43.946Z,101250.78
2022-09-23T01:18:48.607Z,101249.06
2022-09-23T01:20:02.914Z,101235.91
2022-09-23T01:21:35.063Z,101255.78
2022-09-23T01:22:52.584Z,101258.16
2022-09-23T01:24:02.527Z,101260.84
2022-09-23T01:25:23.054Z,101264.72
2022-09-23T01:26:52.863Z,101254.78
2022-09-23T01:28:22.223Z,101248.19
2022-09-23T01:29:26.573Z,101262.53
2022-09-23T01:30:46.472Z,101248.03
2022-09-23T01:32:03.179Z,101249.06
2022-09-23T01:33:10.022Z,101239.63
2022-09-23T01:34:14.085Z,101249.53
2022-09-23T01:35:18.539Z,101254.09
2022-09-23T01:36:41.392Z,101239.44
2022-09-23T01:37:50.772Z,101245.69
2022-09-23T01:39:11.408Z,101238.75
2022-09-23T01:40:40.305Z,101235.38
2022-09-23T01:42:00.011Z,101232.00
2022-09-23T01:43:22.087Z,101233.53
2022-09-23T01:44:43.194Z,101235.22
2022-09-23T01:45:48.547Z,101237.75
2022-09-23T01:46:55.725Z,101236.22
2022-09-23T01:48:14.408Z,101243.63
2022-09-23T01:49:27.085Z,101247.00
2022-09-23T01:50:57.139Z,101242.63
2022-09-23T01:52:08.234Z,101243.13
2022-09-23T01:53:23.690Z,101237.06
2022-09-23T01:54:32.292Z,101222.22
2022-09-23T01:55:40.362Z,101242.78
2022-09-23T01:56:56.332Z,101232.84
2022-09-23T01:58:41.944Z,101229.66
2022-09-23T01:59:50.399Z,101217.19
2022-09-23T02:01:07.120Z,101213.97
2022-09-23T02:02:15.447Z,101242.63
2022-09-23T02:03:26.979Z,101239.44
2022-09-23T02:04:39.767Z,101237.75
2022-09-23T02:05:51.832Z,101234.19
2022-09-23T02:07:00.035Z,101225.28
2022-09-23T02:08:09.065Z,101228.78
2022-09-23T02:09:17.095Z,101238.91
2022-09-23T02:10:25.513Z,101226.44
2022-09-23T02:11:28.494Z,101226.28
2022-09-23T02:12:34.790Z,101240.09
2022-09-23T02:13:53.231Z,101220.03
2022-09-23T02:15:07.348Z,101227.97
2022-09-23T02:16:22.519Z,101236.22
2022-09-23T02:17:35.023Z,101231.66
2022-09-23T02:18:48.006Z,101229.81
2022-09-23T02:20:01.356Z,101213.63
2022-09-23T02:21:07.281Z,101214.63
2022-09-23T02:22:15.303Z,101225.75
2022-09-23T02:23:27.909Z,101236.41
2022-09-23T02:24:32.899Z,101233.84
2022-09-23T02:25:59.352Z,101235.19
2022-09-23T02:27:13.320Z,101228.78
2022-09-23T02:28:36.422Z,101229.66
2022-09-23T02:30:04.906Z,101200.47
2022-09-23T02:31:31.214Z,101199.13
2022-09-23T02:32:54.387Z,101225.59
2022-09-23T02:34:41.071Z,101220.03
2022-09-23T02:35:55.128Z,101212.63
2022-09-23T02:37:21.035Z,101218.34
2022-09-23T02:38:38.358Z,101219.69
2022-09-23T02:39:48.718Z,101220.03
2022-09-23T02:41:00.685Z,101225.75
2022-09-23T02:42:07.722Z,101224.25
2022-09-23T02:43:19.940Z,101227.09
2022-09-23T02:44:23.666Z,101224.41
2022-09-23T02:45:25.446Z,101227.28
2022-09-23T02:46:30.215Z,101224.06
2022-09-23T02:47:35.861Z,101225.91
2022-09-23T02:48:50.691Z,101202.50
2022-09-23T02:49:53.650Z,101207.56
2022-09-23T02:50:55.598Z,101223.06
2022-09-23T02:52:04.958Z,101205.34
2022-09-23T02:53:07.665Z,101216.84
2022-09-23T02:54:14.696Z,101211.75
2022-09-23T02:55:18.614Z,101203.66
2022-09-23T02:56:21.371Z,101218.81
2022-09-23T02:57:23.375Z,101209.91
2022-09-23T02:58:25.475Z,101204.66
2022-09-23T02:59:27.328Z,101211.94
2022-09-23T03:00:56.872Z,101208.22
2022-09-23T03:02:40.017Z,101207.91
2022-09-23T03:04:06.884Z,101203.69
2022-09-23T03:05:31.714Z,101196.63
2022-09-23T03:06:55.732Z,101193.91
2022-09-23T03:08:04.379Z,101199.81
2022-09-23T03:09:18.095Z,101194.94
2022-09-23T03:10:45.179Z,101197.44
2022-09-23T03:11:53.119Z,101198.63
2022-09-23T03:13:26.086Z,101201.69
2022-09-23T03:14:43.191Z,101188.00
2022-09-23T03:16:00.785Z,101198.47
2022-09-23T03:17:12.608Z,101193.06
2022-09-23T03:18:20.419Z,101192.38
2022-09-23T03:19:57.474Z,101185.81
2022-09-23T03:21:03.810Z,101196.78
2022-09-23T03:22:13.071Z,101194.56
2022-09-23T03:23:18.938Z,101209.06
2022-09-23T03:24:23.965Z,101201.47
2022-09-23T03:25:28.252Z,101182.63
2022-09-23T03:26:34.844Z,101206.88
2022-09-23T03:27:38.436Z,101194.75
2022-09-23T03:28:43.285Z,101194.56
2022-09-23T03:29:48.500Z,101199.13
2022-09-23T03:30:51.965Z,101199.13
2022-09-23T03:31:54.773Z,101195.56
2022-09-23T03:33:00.249Z,101196.44
2022-09-23T03:34:06.144Z,101182.94
2022-09-23T03:35:08.338Z,101188.00
2022-09-23T03:36:31.792Z,101184.97
2022-09-23T03:37:44.644Z,101181.94
2022-09-23T03:38:52.366Z,101195.09
2022-09-23T03:40:17.811Z,101189.16
2022-09-23T03:41:32.004Z,101178.91
2022-09-23T03:42:35.455Z,101182.28
2022-09-23T03:43:39.070Z,101178.91
2022-09-23T03:44:45.651Z,101168.47
2022-09-23T03:45:48.030Z,101179.25
2022-09-23T03:46:50.008Z,101173.19
2022-09-23T03:47:52.174Z,101186.66
2022-09-23T03:48:59.909Z,101182.44
2022-09-23T03:50:01.640Z,101176.88
2022-09-23T03:51:21.821Z,101179.59
2022-09-23T03:52:25.922Z,101186.31
2022-09-23T03:53:27.603Z,101158.84
2022-09-23T03:54:30.241Z,101183.97
2022-09-23T03:55:32.335Z,101173.66
2022-09-23T03:56:34.033Z,101173.84
2022-09-23T03:57:36.508Z,101178.72
2022-09-23T03:58:38.339Z,101167.78
2022-09-23T03:59:40.530Z,101186.13
2022-09-23T04:00:42.558Z,101178.91
2022-09-23T04:01:46.004Z,101176.03
2022-09-23T04:02:48.334Z,101182.63
2022-09-23T04:03:51.531Z,101163.41
2022-09-23T04:04:53.206Z,101185.13
2022-09-23T04:05:54.944Z,101179.06
2022-09-23T04:06:57.030Z,101176.34
2022-09-23T04:07:58.747Z,101195.22
2022-09-23T04:09:01.607Z,101193.41
2022-09-23T04:10:05.037Z,101187.47
2022-09-23T04:11:06.863Z,101174.50
2022-09-23T04:12:13.287Z,101184.44
2022-09-23T04:13:15.005Z,101187.00
2022-09-23T04:14:17.873Z,101187.16
2022-09-23T04:15:19.680Z,101184.31
2022-09-23T04:16:21.579Z,101188.84
2022-09-23T04:17:23.538Z,101188.00
2022-09-23T04:18:25.538Z,101182.75
2022-09-23T04:19:27.221Z,101148.19
2022-09-23T04:20:30.509Z,101183.78
2022-09-23T04:21:32.934Z,101184.63
2022-09-23T04:22:35.171Z,101182.28
2022-09-23T04:23:36.883Z,101181.94
2022-09-23T04:24:38.712Z,101171.31
2022-09-23T04:25:47.571Z,101173.00
2022-09-23T04:26:53.975Z,101167.59
2022-09-23T04:27:55.702Z,101173.31
2022-09-23T04:28:57.690Z,101151.25
2022-09-23T04:29:59.346Z,101173.66
2022-09-23T04:31:05.791Z,101182.94
2022-09-23T04:32:07.566Z,101178.38
2022-09-23T04:33:11.183Z,101183.97
2022-09-23T04:34:13.300Z,101174.50
2022-09-23T04:35:15.051Z,101177.56
2022-09-23T04:36:16.988Z,101179.41
2022-09-23T04:37:18.891Z,101171.13
2022-09-23T04:38:20.714Z,101183.09
2022-09-23T04:39:22.572Z,101184.97
2022-09-23T04:40:24.303Z,101167.41
2022-09-23T04:41:26.061Z,101182.28
2022-09-23T04:42:31.270Z,101165.06
2022-09-23T04:43:33.378Z,101186.81
2022-09-23T04:44:35.213Z,101174.19
2022-09-23T04:45:36.942Z,101170.63
2022-09-23T04:46:39.690Z,101177.91
2022-09-23T04:47:41.579Z,101170.28
2022-09-23T04:48:43.400Z,101182.44
2022-09-23T04:49:45.079Z,101180.59
2022-09-23T04:50:48.304Z,101177.91
2022-09-23T04:51:49.975Z,101171.66
2022-09-23T04:52:52.627Z,101182.44
2022-09-23T04:53:55.753Z,101176.19
2022-09-23T04:54:57.483Z,101176.19
2022-09-23T04:56:11.287Z,101158.84
2022-09-23T04:57:13.214Z,101165.91
2022-09-23T04:58:14.886Z,101173.66
2022-09-23T04:59:16.720Z,101176.19
2022-09-23T05:00:18.510Z,101175.34
2022-09-23T05:01:24.943Z,101174.66
2022-09-23T05:02:28.397Z,101163.22
2022-09-23T05:03:32.130Z,101159.31
2022-09-23T05:04:33.894Z,101161.00
2022-09-23T05:05:35.626Z,101171.78
2022-09-23T05:06:37.399Z,101176.34
2022-09-23T05:07:39.665Z,101160.34
2022-09-23T05:08:46.506Z,101173.66
2022-09-23T05:09:48.540Z,101167.94
2022-09-23T05:10:50.216Z,101167.13
2022-09-23T05:11:52.007Z,101164.03
2022-09-23T05:12:57.247Z,101173.00
2022-09-23T05:13:59.465Z,101159.69
2022-09-23T05:15:01.518Z,101167.13
2022-09-23T05:16:08.287Z,101152.63
2022-09-23T05:17:10.123Z,101169.13
2022-09-23T05:18:11.779Z,101166.25
2022-09-23T05:19:13.654Z,101161.38
2022-09-23T05:20:15.564Z,101163.75
2022-09-23T05:21:21.460Z,101160.22
2022-09-23T05:22:23.208Z,101166.44
2022-09-23T05:23:25.475Z,101168.13
2022-09-23T05:24:27.667Z,101157.53
2022-09-23T05:25:29.432Z,101169.78
2022-09-23T05:26:32.335Z,101162.41
2022-09-23T05:27:34.074Z,101172.66
2022-09-23T05:28:37.534Z,101171.50
2022-09-23T05:29:39.425Z,101170.16
2022-09-23T05:30:41.272Z,101172.34
2022-09-23T05:31:42.997Z,101161.03
2022-09-23T05:32:45.714Z,101170.84
2022-09-23T05:33:53.065Z,101168.81
2022-09-23T05:34:55.803Z,101169.13
2022-09-23T05:35:57.563Z,101173.16
2022-09-23T05:36:59.744Z,101170.13
2022-09-23T05:38:01.487Z,101163.38
2022-09-23T05:39:04.709Z,101170.44
2022-09-23T05:40:06.756Z,101157.16
2022-09-23T05:41:12.126Z,101173.50
2022-09-23T05:42:13.827Z,101169.44
2022-09-23T05:43:16.012Z,101168.25
2022-09-23T05:44:17.770Z,101174.16
2022-09-23T05:45:19.688Z,101176.66
2022-09-23T05:46:28.048Z,101169.22
2022-09-23T05:47:29.903Z,101170.56
2022-09-23T05:48:32.634Z,101178.50
2022-09-23T05:49:57.982Z,101177.31
2022-09-23T05:50:58.458Z,101165.31
2022-09-23T05:52:00.203Z,101178.31
2022-09-23T05:53:01.898Z,101183.72
2022-09-23T05:54:05.866Z,101182.03
2022-09-23T05:55:08.264Z,101180.81
2022-09-23T05:56:10.221Z,101164.66
2022-09-23T05:57:12.021Z,101171.03
2022-09-23T05:58:15.406Z,101172.38
2022-09-23T05:59:17.074Z,101181.13
2022-09-23T06:00:18.946Z,101175.56
2022-09-23T06:01:26.827Z,101178.28
2022-09-23T06:02:28.744Z,101176.09
2022-09-23T06:03:30.437Z,101168.50
2022-09-23T06:04:32.183Z,101171.84
2022-09-23T06:05:33.853Z,101171.53
2022-09-23T06:06:41.027Z,101172.41
2022-09-23T06:07:42.840Z,101171.19
2022-09-23T06:08:45.729Z,101160.91
2022-09-23T06:09:47.466Z,101164.78
2022-09-23T06:10:53.528Z,101169.84
2022-09-23T06:11:56.314Z,101172.41
2022-09-23T06:12:58.099Z,101192.44
2022-09-23T06:14:01.344Z,101192.44
2022-09-23T06:15:03.256Z,101187.03
2022-09-23T06:16:08.100Z,101175.75
2022-09-23T06:17:09.903Z,101183.16
2022-09-23T06:18:12.807Z,101179.13
2022-09-23T06:19:14.576Z,101182.66
2022-09-23T06:20:16.598Z,101180.47
2022-09-23T06:21:27.743Z,101179.78
2022-09-23T06:22:29.523Z,101183.47
2022-09-23T06:23:31.616Z,101180.09
2022-09-23T06:24:33.463Z,101184.50
2022-09-23T06:25:36.646Z,101183.47
2022-09-23T06:26:38.507Z,101175.88
2022-09-23T06:27:40.198Z,101187.66
2022-09-23T06:28:43.476Z,101184.97
2022-09-23T06:29:45.154Z,101191.03
2022-09-23T06:30:47.253Z,101190.88
2022-09-23T06:31:49.821Z,101178.19
2022-09-23T06:32:52.831Z,101188.84
2022-09-23T06:34:05.687Z,101190.53
2022-09-23T06:35:23.308Z,101185.41
2022-09-23T06:36:41.052Z,101185.06
2022-09-23T06:37:44.960Z,101177.63
2022-09-23T06:38:49.402Z,101183.03
2022-09-23T06:39:51.117Z,101175.94
2022-09-23T06:40:55.272Z,101180.69
2022-09-23T06:41:57.025Z,101165.19
2022-09-23T06:43:02.521Z,101181.34
2022-09-23T06:44:04.521Z,101179.50
2022-09-23T06:45:07.207Z,101183.03
2022-09-23T06:46:09.162Z,101175.47
2022-09-23T06:47:10.883Z,101169.56
2022-09-23T06:48:12.576Z,101164.16
2022-09-23T06:49:14.381Z,101173.06
2022-09-23T06:50:16.113Z,101179.31
2022-09-23T06:51:21.819Z,101184.72
2022-09-23T06:52:23.598Z,101182.69
2022-09-23T06:53:25.745Z,101176.59
2022-09-23T06:54:29.079Z,101179.97
2022-09-23T06:55:30.834Z,101178.94
2022-09-23T06:56:38.512Z,101176.25
2022-09-23T06:57:41.609Z,101177.94
2022-09-23T06:58:43.451Z,101179.63
2022-09-23T06:59:45.126Z,101168.84
2022-09-23T07:00:46.904Z,101182.31
2022-09-23T07:01:50.708Z,101175.22
2022-09-23T07:02:52.905Z,101182.31
2022-09-23T07:03:54.747Z,101185.69
2022-09-23T07:04:57.461Z,101185.03
2022-09-23T07:06:00.567Z,101182.31
2022-09-23T07:07:02.347Z,101188.38
2022-09-23T07:08:09.714Z,101185.03
2022-09-23T07:09:11.495Z,101171.88
2022-09-23T07:10:13.392Z,101163.09
2022-09-23T07:11:16.291Z,101181.13
2022-09-23T07:12:18.129Z,101171.19
2022-09-23T07:13:20.492Z,101187.22
2022-09-23T07:14:22.450Z,101187.22
2022-09-23T07:15:24.248Z,101182.66
2022-09-23T07:16:26.218Z,101173.53
2022-09-23T07:17:28.003Z,101178.06
2022-09-23T07:18:36.505Z,101175.38
2022-09-23T07:19:38.989Z,101160.69
2022-09-23T07:20:40.676Z,101176.91
2022-09-23T07:21:42.430Z,101166.09
2022-09-23T07:22:45.135Z,101172.50
2022-09-23T07:23:50.352Z,101175.03
2022-09-23T07:24:56.053Z,101171.84
2022-09-23T07:25:58.708Z,101178.75
2022-09-23T07:27:00.772Z,101168.13
2022-09-23T07:28:02.671Z,101170.47
2022-09-23T07:29:06.896Z,101169.16
2022-09-23T07:30:17.381Z,101167.56
2022-09-23T07:31:36.108Z,101171.78
2022-09-23T07:32:48.423Z,101173.13
2022-09-23T07:33:56.253Z,101168.06
2022-09-23T07:34:58.018Z,101173.13
2022-09-23T07:36:00.165Z,101171.44
2022-09-23T07:37:02.314Z,101161.13
2022-09-23T07:38:04.143Z,101142.44
2022-09-23T07:39:06.478Z,101163.50
2022-09-23T07:40:08.655Z,101174.81
2022-09-23T07:41:13.159Z,101173.94
2022-09-23T07:42:15.246Z,101166.84
2022-09-23T07:43:19.156Z,101172.75
2022-09-23T07:44:21.881Z,101174.44
2022-09-23T07:45:23.580Z,101170.06
2022-09-23T07:46:27.815Z,101176.13
2022-09-23T07:47:29.950Z,101166.13
2022-09-23T07:48:34.380Z,101176.78
2022-09-23T07:49:36.797Z,101166.13
2022-09-23T07:50:40.057Z,101169.50
2022-09-23T07:51:45.973Z,101174.75
2022-09-23T07:52:47.646Z,101168.31
2022-09-23T07:53:54.278Z,101147.09
2022-09-23T07:54:56.199Z,101180.81
2022-09-23T07:55:58.279Z,101164.94
2022-09-23T07:57:00.348Z,101177.28
2022-09-23T07:58:02.209Z,101169.84
2022-09-23T07:59:05.867Z,101175.41
2022-09-23T08:00:08.525Z,101171.69
2022-09-23T08:01:13.854Z,101176.75
2022-09-23T08:02:16.544Z,101170.84
2022-09-23T08:03:18.618Z,101165.13
2022-09-23T08:04:23.931Z,101171.34
2022-09-23T08:05:25.967Z,101145.06
2022-09-23T08:06:28.419Z,101164.91
2022-09-23T08:07:30.195Z,101161.19
2022-09-23T08:08:32.092Z,101169.31
2022-09-23T08:09:41.539Z,101159.50
2022-09-23T08:10:43.671Z,101151.25
2022-09-23T08:11:45.499Z,101168.13
2022-09-23T08:12:48.998Z,101170.81
2022-09-23T08:13:50.988Z,101161.03
2022-09-23T08:14:52.779Z,101167.91
2022-09-23T08:15:55.678Z,101163.53
2022-09-23T08:16:57.594Z,101166.25
2022-09-23T08:18:00.052Z,101163.53
2022-09-23T08:19:02.587Z,101142.13
2022-09-23T08:20:04.882Z,101162.50
2022-09-23T08:21:06.679Z,101160.66
2022-09-23T08:22:08.439Z,101143.66
2022-09-23T08:23:14.973Z,101146.00
2022-09-23T08:24:19.131Z,101142.25
2022-09-23T08:25:22.686Z,101139.56
2022-09-23T08:26:24.675Z,101160.31
2022-09-23T08:27:28.892Z,101152.19
2022-09-23T08:28:33.912Z,101148.63
2022-09-23T08:29:35.600Z,101152.00
2022-09-23T08:30:39.138Z,101152.34
2022-09-23T08:31:41.159Z,101153.69
2022-09-23T08:32:43.252Z,101142.56
2022-09-23T08:33:44.946Z,101148.25
2022-09-23T08:34:46.674Z,101155.34
2022-09-23T08:35:48.423Z,101146.41
2022-09-23T08:36:50.248Z,101140.72
2022-09-23T08:37:51.970Z,101152.50
2022-09-23T08:38:54.370Z,101137.81
2022-09-23T08:39:56.407Z,101148.75
2022-09-23T08:41:17.281Z,101149.41
2022-09-23T08:42:25.663Z,101145.88
2022-09-23T08:43:29.916Z,101149.91
2022-09-23T08:44:46.182Z,101145.53
2022-09-23T08:45:48.298Z,101145.16
2022-09-23T08:46:54.774Z,101136.09
2022-09-23T08:48:09.550Z,101150.94
2022-09-23T08:49:31.243Z,101139.75
2022-09-23T08:50:46.823Z,101143.78
2022-09-23T08:51:50.776Z,101146.47
2022-09-23T08:52:57.095Z,101138.44
2022-09-23T08:53:59.996Z,101154.94
2022-09-23T08:55:03.640Z,101142.47
2022-09-23T08:56:16.215Z,101146.84
2022-09-23T08:57:32.621Z,101146.63
2022-09-23T08:58:51.683Z,101146.47
2022-09-23T08:59:54.262Z,101139.38
2022-09-23T09:01:33.837Z,101151.53
2022-09-23T09:02:36.737Z,101131.44
2022-09-23T09:03:46.340Z,101145.25
2022-09-23T09:04:53.847Z,101144.59
2022-09-23T09:05:56.879Z,101144.44
2022-09-23T09:07:35.146Z,101139.38
2022-09-23T09:08:37.534Z,101149.09
2022-09-23T09:09:47.606Z,101146.09
2022-09-23T09:10:50.583Z,101145.91
2022-09-23T09:12:00.379Z,101148.97
2022-09-23T09:13:11.036Z,101137.34
2022-09-23T09:14:22.552Z,101146.94
2022-09-23T09:15:29.571Z,101153.19
2022-09-23T09:16:59.446Z,101152.84
2022-09-23T09:18:07.857Z,101149.94
2022-09-23T09:19:18.413Z,101137.34
2022-09-23T09:20:57.026Z,101151.44
2022-09-23T09:21:58.736Z,101152.97
2022-09-23T09:23:03.039Z,101153.50
2022-09-23T09:24:16.623Z,101150.28
2022-09-23T09:25:24.342Z,101151.97
2022-09-23T09:26:29.146Z,101153.84
2022-09-23T09:27:31.256Z,101144.06
2022-09-23T09:28:43.161Z,101149.47
2022-09-23T09:29:50.095Z,101155.72
2022-09-23T09:30:56.871Z,101154.88
2022-09-23T09:31:59.552Z,101149.47
2022-09-23T09:33:13.396Z,101148.63
2022-09-23T09:34:24.387Z,101149.09
2022-09-23T09:35:44.650Z,101150.78
2022-09-23T09:37:07.458Z,101151.28
2022-09-23T09:38:09.438Z,101152.09
2022-09-23T09:39:13.683Z,101152.47
2022-09-23T09:40:20.479Z,101150.78
2022-09-23T09:41:24.692Z,101149.09
2022-09-23T09:42:41.095Z,101152.84
2022-09-23T09:43:49.249Z,101145.38
2022-09-23T09:45:00.031Z,101140.50
2022-09-23T09:46:21.771Z,101145.88
2022-09-23T09:47:43.730Z,101151.06
2022-09-23T09:48:56.437Z,101149.22
2022-09-23T09:50:11.918Z,101146.53
2022-09-23T09:51:19.537Z,101151.06
2022-09-23T09:52:26.906Z,101151.28
2022-09-23T09:53:30.528Z,101146.03
2022-09-23T09:54:32.423Z,101143.53
2022-09-23T09:55:34.722Z,101143.69
2022-09-23T09:56:37.371Z,101142.84
2022-09-23T09:57:47.796Z,101146.41
2022-09-23T09:58:58.904Z,101135.41
2022-09-23T10:00:31.314Z,101139.44
2022-09-23T10:01:34.827Z,101140.91
2022-09-23T10:02:38.075Z,101135.03
2022-09-23T10:03:43.166Z,101138.78
2022-09-23T10:04:45.256Z,101137.25
2022-09-23T10:05:54.553Z,101131.34
2022-09-23T10:07:13.056Z,101141.94
2022-09-23T10:08:37.278Z,101129.72
2022-09-23T10:09:40.473Z,101131.78
2022-09-23T10:10:54.629Z,101135.69
2022-09-23T10:12:20.735Z,101120.38
2022-09-23T10:13:26.451Z,101137.19
2022-09-23T10:14:29.277Z,101131.78
2022-09-23T10:15:34.743Z,101135.69
2022-09-23T10:16:37.393Z,101131.31
2022-09-23T10:17:39.440Z,101139.44
2022-09-23T10:18:47.231Z,101131.47
2022-09-23T10:19:55.798Z,101122.53
2022-09-23T10:21:06.643Z,101132.13
2022-09-23T10:22:30.027Z,101130.09
2022-09-23T10:23:33.473Z,101126.00
2022-09-23T10:24:38.779Z,101128.03
2022-09-23T10:25:41.844Z,101130.94
2022-09-23T10:26:51.292Z,101125.53
2022-09-23T10:27:53.125Z,101129.72
2022-09-23T10:28:55.787Z,101127.38
2022-09-23T10:30:00.972Z,101127.38
2022-09-23T10:31:16.858Z,101127.22
2022-09-23T10:32:37.349Z,101126.00
2022-09-23T10:33:48.404Z,101125.63
2022-09-23T10:34:57.653Z,101127.28
2022-09-23T10:35:59.368Z,101128.31
2022-09-23T10:37:15.863Z,101122.25
2022-09-23T10:38:17.852Z,101128.16
2022-09-23T10:39:38.069Z,101129.34
2022-09-23T10:41:01.622Z,101120.84
2022-09-23T10:42:48.096Z,101130.78
2022-09-23T10:44:36.392Z,101125.50
2022-09-23T10:46:07.146Z,101120.44
2022-09-23T10:47:32.303Z,101121.25
2022-09-23T10:48:59.434Z,101126.34
2022-09-23T10:50:08.010Z,101123.31
2022-09-23T10:51:27.821Z,101112.03
2022-09-23T10:52:49.127Z,101117.44
2022-09-23T10:54:20.020Z,101120.09
2022-09-23T10:55:39.685Z,101118.41
2022-09-23T10:56:50.848Z,101116.22
2022-09-23T10:58:21.380Z,101112.31
2022-09-23T10:59:29.178Z,101111.66
2022-09-23T11:00:46.476Z,101109.13
2022-09-23T11:02:22.159Z,101107.94
2022-09-23T11:03:32.232Z,101111.28
2022-09-23T11:05:15.407Z,101108.91
2022-09-23T11:06:33.408Z,101104.38
2022-09-23T11:07:46.054Z,101120.09
2022-09-23T11:08:56.446Z,101116.69
2022-09-23T11:09:58.156Z,101112.50
2022-09-23T11:11:08.884Z,101110.69
2022-09-23T11:12:17.410Z,101118.09
2022-09-23T11:13:23.399Z,101119.13
2022-09-23T11:14:44.195Z,101102.94
2022-09-23T11:16:04.238Z,101116.69
2022-09-23T11:17:19.317Z,101117.53
2022-09-23T11:18:44.764Z,101114.69
2022-09-23T11:20:21.794Z,101114.97
2022-09-23T11:21:58.301Z,101121.03
2022-09-23T11:23:41.843Z,101112.53
2022-09-23T11:24:48.895Z,101117.94
2022-09-23T11:25:53.765Z,101120.56
2022-09-23T11:27:05.090Z,101119.06
2022-09-23T11:28:18.092Z,101106.06
2022-09-23T11:29:29.485Z,101122.59
2022-09-23T11:30:41.132Z,101122.81
2022-09-23T11:32:38.477Z,101120.66
2022-09-23T11:34:02.824Z,101113.38
2022-09-23T11:35:20.575Z,101114.59
2022-09-23T11:36:32.847Z,101122.72
2022-09-23T11:37:41.700Z,101124.75
2022-09-23T11:38:48.874Z,101120.09
2022-09-23T11:40:13.343Z,101116.00
2022-09-23T11:41:21.767Z,101118.50
2022-09-23T11:42:28.976Z,101117.03
2022-09-23T11:43:37.186Z,101117.19
2022-09-23T11:44:50.011Z,101118.03
2022-09-23T11:45:56.491Z,101121.41
2022-09-23T11:47:08.555Z,101118.69
2022-09-23T11:48:22.628Z,101129.31
2022-09-23T11:49:33.961Z,101115.78
2022-09-23T11:50:44.406Z,101115.63
2022-09-23T11:52:08.781Z,101100.78
2022-09-23T11:53:23.715Z,101110.66
2022-09-23T11:54:52.915Z,101118.44
2022-09-23T11:56:34.956Z,101121.22
2022-09-23T11:57:51.621Z,101112.66
2022-09-23T11:59:33.793Z,101112.44
2022-09-23T12:01:07.197Z,101118.50
2022-09-23T12:02:41.325Z,101115.06
2022-09-23T12:04:17.884Z,101114.22
2022-09-23T12:05:26.047Z,101116.44
2022-09-23T12:06:42.903Z,101119.53
2022-09-23T12:07:56.684Z,101099.81
2022-09-23T12:09:03.951Z,101111.13
2022-09-23T12:10:08.020Z,101116.56
2022-09-23T12:11:29.353Z,101111.13
2022-09-23T12:13:03.495Z,101116.66
2022-09-23T12:14:11.432Z,101114.78
2022-09-23T12:15:28.604Z,101120.19
2022-09-23T12:16:56.325Z,101118.78
2022-09-23T12:18:04.203Z,101118.34
2022-09-23T12:19:28.109Z,101116.81
2022-09-23T12:20:53.911Z,101108.25
2022-09-23T12:22:29.862Z,101115.06
2022-09-23T12:24:22.979Z,101117.50
2022-09-23T12:25:36.179Z,101120.75
2022-09-23T12:26:39.135Z,101116.72
2022-09-23T12:27:48.214Z,101113.75
2022-09-23T12:28:54.555Z,101100.47
2022-09-23T12:30:00.570Z,101116.81
2022-09-23T12:31:04.895Z,101116.00
2022-09-23T12:32:10.043Z,101111.41
2022-09-23T12:33:27.705Z,101111.03
2022-09-23T12:34:38.411Z,101115.81
2022-09-23T12:35:46.106Z,101111.03
2022-09-23T12:36:48.013Z,101104.31
2022-09-23T12:37:50.370Z,101115.81
2022-09-23T12:39:25.202Z,101112.72
2022-09-23T12:40:34.241Z,101110.50
2022-09-23T12:41:43.047Z,101096.03
2022-09-23T12:42:47.725Z,101111.69
2022-09-23T12:44:15.539Z,101113.56
2022-09-23T12:45:32.702Z,101111.31
2022-09-23T12:46:34.603Z,101100.84
2022-09-23T12:47:38.976Z,101104.53
2022-09-23T12:48:58.233Z,101104.97
2022-09-23T12:50:01.285Z,101106.75
2022-09-23T12:51:03.091Z,101115.06
2022-09-23T12:52:11.021Z,101104.44
2022-09-23T12:53:31.167Z,101111.78
2022-09-23T12:54:32.907Z,101112.63
2022-09-23T12:55:34.570Z,101113.00
2022-09-23T12:56:36.559Z,101117.59
2022-09-23T12:57:41.947Z,101110.50
2022-09-23T12:58:43.671Z,101113.00
2022-09-23T13:00:14.644Z,101111.91
2022-09-23T13:01:22.582Z,101117.31
2022-09-23T13:02:40.488Z,101099.28
2022-09-23T13:04:04.792Z,101112.72